sensor_id;sensor_type;location;lat;lon;timestamp;pressure;altitude;pressure_sealevel;temperature;humidity
29315;BME280;16320;53.954;9.506;2023-01-29T00:01:44;102629.47;;;3.01;100.00
29315;BME280;16320;53.954;9.506;2023-01-29T00:04:49;102621.72;;;3.06;100.00
29315;BME280;16320;53.954;9.506;2023-01-29T00:07:54;102617.38;;;3.05;100.00
29315;BME280;16320;53.954;9.506;2023-01-29T00:11:01;102613.03;;;3.05;100.00
29315;BME280;16320;53.954;9.506;2023-01-29T00:14:07;102608.72;;;3.04;100.00
29315;BME280;16320;53.954;9.506;2023-01-29T00:17:11;102615.72;;;3.13;100.00
29315;BME280;16320;53.954;9.506;2023-01-29T00:20:16;102620.91;;;3.11;100.00
29315;BME280;16320;53.954;9.506;2023-01-29T00:23:42;102626.13;;;3.15;100.00
29315;BME280;16320;53.954;9.506;2023-01-29T00:26:49;102629.66;;;3.23;100.00
29315;BME280;16320;53.954;9.506;2023-01-29T00:29:54;102633.94;;;3.16;100.00
29315;BME280;16320;53.954;9.506;2023-01-29T00:33:15;102625.28;;;3.16;100.00
29315;BME280;16320;53.954;9.506;2023-01-29T00:36:20;102630.50;;;3.17;100.00
29315;BME280;16320;53.954;9.506;2023-01-29T00:39:25;102634.00;;;3.24;100.00
29315;BME280;16320;53.954;9.506;2023-01-29T00:42:51;102627.00;;;3.17;100.00
29315;BME280;16320;53.954;9.506;2023-01-29T00:46:14;102631.41;;;3.24;100.00
29315;BME280;16320;53.954;9.506;2023-01-29T00:49:19;102622.75;;;3.22;100.00
29315;BME280;16320;53.954;9.506;2023-01-29T00:52:24;102625.34;;;3.20;100.00
29315;BME280;16320;53.954;9.506;2023-01-29T00:55:29;102625.38;;;3.23;100.00
29315;BME280;16320;53.954;9.506;2023-01-29T00:58:33;102634.91;;;3.29;100.00
29315;BME280;16320;53.954;9.506;2023-01-29T01:01:38;102634.13;;;3.33;100.00
29315;BME280;16320;53.954;9.506;2023-01-29T01:05:00;102634.91;;;3.29;100.00
29315;BME280;16320;53.954;9.506;2023-01-29T01:08:09;102646.19;;;3.29;100.00
29315;BME280;16320;53.954;9.506;2023-01-29T01:11:33;102632.34;;;3.32;100.00
29315;BME280;16320;53.954;9.506;2023-01-29T01:14:37;102630.69;;;3.40;100.00
29315;BME280;16320;53.954;9.506;2023-01-29T01:17:41;102634.13;;;3.39;100.00
29315;BME280;16320;53.954;9.506;2023-01-29T01:20:45;102635.88;;;3.37;100.00
29315;BME280;16320;53.954;9.506;2023-01-29T01:23:54;102629.78;;;3.35;100.00
29315;BME280;16320;53.954;9.506;2023-01-29T01:26:59;102628.06;;;3.37;100.00
29315;BME280;16320;53.954;9.506;2023-01-29T01:30:04;102624.63;;;3.38;100.00
29315;BME280;16320;53.954;9.506;2023-01-29T01:33:09;102625.47;;;3.39;100.00
29315;BME280;16320;53.954;9.506;2023-01-29T01:36:13;102624.66;;;3.44;100.00
29315;BME280;16320;53.954;9.506;2023-01-29T01:39:18;102633.34;;;3.46;100.00
29315;BME280;16320;53.954;9.506;2023-01-29T01:42:32;102625.56;;;3.46;100.00
29315;BME280;16320;53.954;9.506;2023-01-29T01:45:36;102617.75;;;3.46;100.00
29315;BME280;16320;53.954;9.506;2023-01-29T01:48:41;102622.97;;;3.46;100.00
29315;BME280;16320;53.954;9.506;2023-01-29T01:51:49;102615.13;;;3.43;100.00
29315;BME280;16320;53.954;9.506;2023-01-29T01:54:56;102620.41;;;3.51;100.00
29315;BME280;16320;53.954;9.506;2023-01-29T01:58:10;102615.22;;;3.51;100.00
29315;BME280;16320;53.954;9.506;2023-01-29T02:01:16;102620.38;;;3.48;100.00
29315;BME280;16320;53.954;9.506;2023-01-29T02:04:23;102622.13;;;3.51;100.00
29315;BME280;16320;53.954;9.506;2023-01-29T02:07:48;102612.59;;;3.50;100.00
29315;BME280;16320;53.954;9.506;2023-01-29T02:11:12;102608.25;;;3.48;100.00
29315;BME280;16320;53.954;9.506;2023-01-29T02:14:16;102610.84;;;3.48;100.00
29315;BME280;16320;53.954;9.506;2023-01-29T02:17:20;102605.69;;;3.52;100.00
29315;BME280;16320;53.954;9.506;2023-01-29T02:20:30;102593.50;;;3.47;100.00
29315;BME280;16320;53.954;9.506;2023-01-29T02:24:10;102590.06;;;3.48;100.00
29315;BME280;16320;53.954;9.506;2023-01-29T02:34:51;102572.72;;;3.47;100.00
29315;BME280;16320;53.954;9.506;2023-01-29T02:38:48;102565.81;;;3.50;100.00
29315;BME280;16320;53.954;9.506;2023-01-29T02:45:17;102542.44;;;3.50;100.00
29315;BME280;16320;53.954;9.506;2023-01-29T02:48:23;102541.50;;;3.44;100.00
29315;BME280;16320;53.954;9.506;2023-01-29T02:51:42;102526.88;;;3.54;100.00
29315;BME280;16320;53.954;9.506;2023-01-29T02:55:03;102525.13;;;3.52;100.00
29315;BME280;16320;53.954;9.506;2023-01-29T02:58:51;102513.84;;;3.46;100.00
29315;BME280;16320;53.954;9.506;2023-01-29T03:02:22;102512.97;;;3.47;100.00
29315;BME280;16320;53.954;9.506;2023-01-29T03:09:06;102518.16;;;3.43;100.00
29315;BME280;16320;53.954;9.506;2023-01-29T03:12:22;102514.69;;;3.44;100.00
29315;BME280;16320;53.954;9.506;2023-01-29T03:15:45;102509.44;;;3.39;100.00
29315;BME280;16320;53.954;9.506;2023-01-29T03:19:07;102506.03;;;3.43;100.00
29315;BME280;16320;53.954;9.506;2023-01-29T03:22:14;102507.75;;;3.44;100.00
29315;BME280;16320;53.954;9.506;2023-01-29T03:25:22;102516.44;;;3.46;100.00
29315;BME280;16320;53.954;9.506;2023-01-29T03:28:48;102512.94;;;3.44;100.00
29315;BME280;16320;53.954;9.506;2023-01-29T03:32:12;102517.25;;;3.42;100.00
29315;BME280;16320;53.954;9.506;2023-01-29T03:35:22;102516.44;;;3.45;100.00
29315;BME280;16320;53.954;9.506;2023-01-29T03:38:36;102519.91;;;3.48;100.00
29315;BME280;16320;53.954;9.506;2023-01-29T03:45:36;102511.22;;;3.45;100.00
29315;BME280;16320;53.954;9.506;2023-01-29T03:58:49;102506.03;;;3.43;100.00
29315;BME280;16320;53.954;9.506;2023-01-29T04:02:02;102506.91;;;3.45;100.00
29315;BME280;16320;53.954;9.506;2023-01-29T04:05:16;102508.59;;;3.40;100.00
29315;BME280;16320;53.954;9.506;2023-01-29T04:08:28;102518.97;;;3.39;100.00
29315;BME280;16320;53.954;9.506;2023-01-29T04:11:40;102527.59;;;3.36;100.00
29315;BME280;16320;53.954;9.506;2023-01-29T04:14:47;102516.34;;;3.34;100.00
29315;BME280;16320;53.954;9.506;2023-01-29T04:17:55;102516.38;;;3.39;100.00
29315;BME280;16320;53.954;9.506;2023-01-29T04:21:00;102508.56;;;3.37;100.00
29315;BME280;16320;53.954;9.506;2023-01-29T04:24:05;102518.94;;;3.34;100.00
29315;BME280;16320;53.954;9.506;2023-01-29T04:33:57;102525.00;;;3.35;100.00
29315;BME280;16320;53.954;9.506;2023-01-29T04:37:15;102517.22;;;3.32;100.00
29315;BME280;16320;53.954;9.506;2023-01-29T04:47:59;102492.06;;;3.29;100.00
29315;BME280;16320;53.954;9.506;2023-01-29T04:51:18;102491.22;;;3.30;100.00
29315;BME280;16320;53.954;9.506;2023-01-29T04:54:29;102470.44;;;3.30;100.00
29315;BME280;16320;53.954;9.506;2023-01-29T04:58:08;102466.91;;;3.25;100.00
29315;BME280;16320;53.954;9.506;2023-01-29T05:01:17;102475.59;;;3.24;100.00
29315;BME280;16320;53.954;9.506;2023-01-29T05:04:22;102486.84;;;3.24;100.00
29315;BME280;16320;53.954;9.506;2023-01-29T05:07:28;102473.78;;;3.14;100.00
29315;BME280;16320;53.954;9.506;2023-01-29T05:10:34;102472.00;;;3.06;100.00
29315;BME280;16320;53.954;9.506;2023-01-29T05:13:41;102459.03;;;3.08;100.00
29315;BME280;16320;53.954;9.506;2023-01-29T05:16:50;102458.19;;;3.10;100.00
29315;BME280;16320;53.954;9.506;2023-01-29T05:19:56;102464.22;;;3.08;100.00
29315;BME280;16320;53.954;9.506;2023-01-29T05:23:01;102477.22;;;3.09;100.00
29315;BME280;16320;53.954;9.506;2023-01-29T05:26:05;102483.19;;;2.98;100.00
29315;BME280;16320;53.954;9.506;2023-01-29T05:29:10;102484.91;;;3.00;100.00
29315;BME280;16320;53.954;9.506;2023-01-29T05:32:15;102496.16;;;2.96;100.00
29315;BME280;16320;53.954;9.506;2023-01-29T05:35:20;102489.22;;;2.95;100.00
29315;BME280;16320;53.954;9.506;2023-01-29T05:38:24;102468.44;;;2.93;100.00
29315;BME280;16320;53.954;9.506;2023-01-29T05:41:29;102464.13;;;2.92;100.00
29315;BME280;16320;53.954;9.506;2023-01-29T05:44:33;102452.88;;;2.95;100.00
29315;BME280;16320;53.954;9.506;2023-01-29T05:47:38;102423.41;;;2.90;100.00
29315;BME280;16320;53.954;9.506;2023-01-29T05:50:42;102432.94;;;2.91;100.00
29315;BME280;16320;53.954;9.506;2023-01-29T05:53:46;102438.13;;;2.94;100.00
29315;BME280;16320;53.954;9.506;2023-01-29T05:56:50;102437.28;;;2.95;100.00
29315;BME280;16320;53.954;9.506;2023-01-29T05:59:54;102441.56;;;2.88;100.00
29315;BME280;16320;53.954;9.506;2023-01-29T06:02:59;102425.97;;;2.87;100.00
29315;BME280;16320;53.954;9.506;2023-01-29T06:06:04;102425.13;;;2.88;100.00
29315;BME280;16320;53.954;9.506;2023-01-29T06:09:10;102422.56;;;2.91;100.00
29315;BME280;16320;53.954;9.506;2023-01-29T06:12:14;102428.59;;;2.88;100.00
29315;BME280;16320;53.954;9.506;2023-01-29T06:15:19;102414.72;;;2.85;100.00
29315;BME280;16320;53.954;9.506;2023-01-29T06:18:23;102422.50;;;2.83;100.00
29315;BME280;16320;53.954;9.506;2023-01-29T06:21:27;102414.72;;;2.85;100.00
29315;BME280;16320;53.954;9.506;2023-01-29T06:24:32;102409.56;;;2.89;100.00
29315;BME280;16320;53.954;9.506;2023-01-29T06:27:36;102406.09;;;2.89;100.00
29315;BME280;16320;53.954;9.506;2023-01-29T06:30:40;102411.28;;;2.89;100.00
29315;BME280;16320;53.954;9.506;2023-01-29T06:33:45;102403.50;;;2.89;100.00
29315;BME280;16320;53.954;9.506;2023-01-29T06:36:50;102392.22;;;2.84;100.00
29315;BME280;16320;53.954;9.506;2023-01-29T06:39:54;102387.88;;;2.84;100.00
29315;BME280;16320;53.954;9.506;2023-01-29T06:43:01;102391.34;;;2.83;100.00
29315;BME280;16320;53.954;9.506;2023-01-29T06:46:07;102376.63;;;2.82;100.00
29315;BME280;16320;53.954;9.506;2023-01-29T06:49:11;102371.44;;;2.84;100.00
29315;BME280;16320;53.954;9.506;2023-01-29T06:52:16;102388.75;;;2.82;100.00
29315;BME280;16320;53.954;9.506;2023-01-29T06:55:20;102392.19;;;2.81;100.00
29315;BME280;16320;53.954;9.506;2023-01-29T06:58:24;102390.47;;;2.80;100.00
29315;BME280;16320;53.954;9.506;2023-01-29T07:01:29;102399.09;;;2.79;100.00
29315;BME280;16320;53.954;9.506;2023-01-29T07:04:39;102393.91;;;2.79;100.00
29315;BME280;16320;53.954;9.506;2023-01-29T07:07:45;102392.16;;;2.78;100.00
29315;BME280;16320;53.954;9.506;2023-01-29T07:10:49;102398.25;;;2.80;100.00
29315;BME280;16320;53.954;9.506;2023-01-29T07:13:53;102393.97;;;2.85;100.00
29315;BME280;16320;53.954;9.506;2023-01-29T07:16:58;102406.06;;;2.84;100.00
29315;BME280;16320;53.954;9.506;2023-01-29T07:20:02;102397.38;;;2.81;100.00
29315;BME280;16320;53.954;9.506;2023-01-29T07:23:12;102383.56;;;2.83;100.00
29315;BME280;16320;53.954;9.506;2023-01-29T07:26:17;102386.19;;;2.85;100.00
29315;BME280;16320;53.954;9.506;2023-01-29T07:29:21;102395.72;;;2.89;100.00
29315;BME280;16320;53.954;9.506;2023-01-29T07:32:27;102394.00;;;2.91;100.00
29315;BME280;16320;53.954;9.506;2023-01-29T07:35:40;102387.06;;;2.90;100.00
29315;BME280;16320;53.954;9.506;2023-01-29T07:38:49;102394.00;;;2.94;100.00
29315;BME280;16320;53.954;9.506;2023-01-29T07:41:54;102397.50;;;2.95;100.00
29315;BME280;16320;53.954;9.506;2023-01-29T07:44:58;102390.56;;;2.95;100.00
29315;BME280;16320;53.954;9.506;2023-01-29T07:48:04;102381.03;;;2.96;100.00
29315;BME280;16320;53.954;9.506;2023-01-29T07:51:09;102372.44;;;3.00;100.00
29315;BME280;16320;53.954;9.506;2023-01-29T07:54:13;102369.81;;;2.98;100.00
29315;BME280;16320;53.954;9.506;2023-01-29T07:57:17;102375.91;;;3.03;100.00
29315;BME280;16320;53.954;9.506;2023-01-29T08:00:22;102368.97;;;2.99;100.00
29315;BME280;16320;53.954;9.506;2023-01-29T08:03:26;102358.59;;;3.04;100.00
29315;BME280;16320;53.954;9.506;2023-01-29T08:06:31;102366.38;;;3.05;100.00
29315;BME280;16320;53.954;9.506;2023-01-29T08:09:36;102363.78;;;3.04;100.00
29315;BME280;16320;53.954;9.506;2023-01-29T08:12:40;102350.81;;;3.05;100.00
29315;BME280;16320;53.954;9.506;2023-01-29T08:15:44;102349.13;;;3.07;100.00
29315;BME280;16320;53.954;9.506;2023-01-29T08:18:49;102345.63;;;3.08;100.00
29315;BME280;16320;53.954;9.506;2023-01-29T08:21:53;102340.44;;;3.07;100.00
29315;BME280;16320;53.954;9.506;2023-01-29T08:24:58;102348.22;;;3.05;100.00
29315;BME280;16320;53.954;9.506;2023-01-29T08:28:10;102354.31;;;3.07;100.00
29315;BME280;16320;53.954;9.506;2023-01-29T08:31:16;102357.75;;;3.06;100.00
29315;BME280;16320;53.954;9.506;2023-01-29T08:34:21;102350.03;;;3.14;100.00
29315;BME280;16320;53.954;9.506;2023-01-29T08:37:25;102350.84;;;3.11;100.00
29315;BME280;16320;53.954;9.506;2023-01-29T08:40:33;102342.19;;;3.09;100.00
29315;BME280;16320;53.954;9.506;2023-01-29T08:43:38;102352.59;;;3.13;100.00
29315;BME280;16320;53.954;9.506;2023-01-29T08:46:43;102350.88;;;3.15;100.00
29315;BME280;16320;53.954;9.506;2023-01-29T08:49:47;102349.13;;;3.10;100.00
29315;BME280;16320;53.954;9.506;2023-01-29T08:53:43;102349.16;;;3.14;100.00
29315;BME280;16320;53.954;9.506;2023-01-29T08:56:53;102350.06;;;3.23;100.00
29315;BME280;16320;53.954;9.506;2023-01-29T08:59:57;102356.97;;;3.24;100.00
29315;BME280;16320;53.954;9.506;2023-01-29T09:03:02;102355.25;;;3.25;100.00
29315;BME280;16320;53.954;9.506;2023-01-29T09:06:10;102356.16;;;3.27;100.00
29315;BME280;16320;53.954;9.506;2023-01-29T09:09:15;102357.03;;;3.35;100.00
29315;BME280;16320;53.954;9.506;2023-01-29T09:12:19;102351.84;;;3.35;100.00
29315;BME280;16320;53.954;9.506;2023-01-29T09:15:24;102345.78;;;3.39;100.00
29315;BME280;16320;53.954;9.506;2023-01-29T09:18:29;102344.94;;;3.39;100.00
29315;BME280;16320;53.954;9.506;2023-01-29T09:21:33;102338.00;;;3.41;100.00
29315;BME280;16320;53.954;9.506;2023-01-29T09:24:38;102342.34;;;3.43;100.00
29315;BME280;16320;53.954;9.506;2023-01-29T09:27:42;102329.41;;;3.48;100.00
29315;BME280;16320;53.954;9.506;2023-01-29T09:30:46;102320.72;;;3.43;100.00
29315;BME280;16320;53.954;9.506;2023-01-29T09:33:51;102320.69;;;3.46;100.00
29315;BME280;16320;53.954;9.506;2023-01-29T09:36:55;102313.81;;;3.50;100.00
29315;BME280;16320;53.954;9.506;2023-01-29T09:40:00;102308.63;;;3.50;100.00
29315;BME280;16320;53.954;9.506;2023-01-29T09:43:17;102310.31;;;3.47;100.00
29315;BME280;16320;53.954;9.506;2023-01-29T09:49:40;102301.69;;;3.50;100.00
29315;BME280;16320;53.954;9.506;2023-01-29T09:52:49;102306.00;;;3.56;100.00
29315;BME280;16320;53.954;9.506;2023-01-29T09:56:16;102306.03;;;3.59;100.00
29315;BME280;16320;53.954;9.506;2023-01-29T09:59:26;102295.63;;;3.56;100.00
29315;BME280;16320;53.954;9.506;2023-01-29T10:10:23;102299.13;;;3.64;100.00
29315;BME280;16320;53.954;9.506;2023-01-29T10:21:11;102285.25;;;3.65;100.00
29315;BME280;16320;53.954;9.506;2023-01-29T10:24:56;102281.78;;;3.63;100.00
29315;BME280;16320;53.954;9.506;2023-01-29T10:28:19;102274.00;;;3.67;100.00
29315;BME280;16320;53.954;9.506;2023-01-29T10:31:28;102259.28;;;3.65;100.00
29315;BME280;16320;53.954;9.506;2023-01-29T10:34:43;102249.75;;;3.72;100.00
29315;BME280;16320;53.954;9.506;2023-01-29T10:37:52;102256.69;;;3.76;100.00
29315;BME280;16320;53.954;9.506;2023-01-29T10:41:05;102247.16;;;3.73;100.00
29315;BME280;16320;53.954;9.506;2023-01-29T10:58:54;102215.97;;;3.70;100.00
29315;BME280;16320;53.954;9.506;2023-01-29T11:02:00;102217.69;;;3.71;100.00
29315;BME280;16320;53.954;9.506;2023-01-29T11:12:19;102210.75;;;3.69;100.00
29315;BME280;16320;53.954;9.506;2023-01-29T11:15:31;102214.25;;;3.66;100.00
29315;BME280;16320;53.954;9.506;2023-01-29T11:21:59;102189.09;;;3.62;100.00
29315;BME280;16320;53.954;9.506;2023-01-29T11:25:19;102189.09;;;3.59;100.00
29315;BME280;16320;53.954;9.506;2023-01-29T11:28:44;102178.69;;;3.59;100.00
29315;BME280;16320;53.954;9.506;2023-01-29T11:31:49;102177.84;;;3.58;100.00
29315;BME280;16320;53.954;9.506;2023-01-29T11:38:27;102171.81;;;3.62;100.00
29315;BME280;16320;53.954;9.506;2023-01-29T11:44:56;102162.25;;;3.64;100.00
29315;BME280;16320;53.954;9.506;2023-01-29T11:48:00;102144.94;;;3.62;100.00
29315;BME280;16320;53.954;9.506;2023-01-29T11:51:04;102138.00;;;3.67;100.00
29315;BME280;16320;53.954;9.506;2023-01-29T11:54:15;102144.06;;;3.66;100.00
29315;BME280;16320;53.954;9.506;2023-01-29T11:57:31;102136.28;;;3.72;100.00
29315;BME280;16320;53.954;9.506;2023-01-29T12:00:39;102125.00;;;3.75;100.00
29315;BME280;16320;53.954;9.506;2023-01-29T12:03:52;102117.19;;;3.73;100.00
29315;BME280;16320;53.954;9.506;2023-01-29T12:06:57;102117.22;;;3.79;100.00
29315;BME280;16320;53.954;9.506;2023-01-29T12:10:01;102099.00;;;3.78;100.00
29315;BME280;16320;53.954;9.506;2023-01-29T12:16:36;102099.88;;;3.75;100.00
29315;BME280;16320;53.954;9.506;2023-01-29T12:20:00;102100.75;;;3.74;100.00
29315;BME280;16320;53.954;9.506;2023-01-29T12:26:50;102091.22;;;3.82;100.00
29315;BME280;16320;53.954;9.506;2023-01-29T12:30:12;102086.88;;;3.81;100.00
29315;BME280;16320;53.954;9.506;2023-01-29T12:36:50;102075.63;;;3.82;100.00
29315;BME280;16320;53.954;9.506;2023-01-29T12:39:59;102059.16;;;3.80;100.00
29315;BME280;16320;53.954;9.506;2023-01-29T12:43:15;102066.06;;;3.81;100.00
29315;BME280;16320;53.954;9.506;2023-01-29T12:46:28;102050.47;;;3.86;100.00
29315;BME280;16320;53.954;9.506;2023-01-29T12:49:56;102044.44;;;3.79;100.00
29315;BME280;16320;53.954;9.506;2023-01-29T12:53:27;102032.28;;;3.84;100.00
29315;BME280;16320;53.954;9.506;2023-01-29T12:56:45;102024.50;;;3.81;100.00
29315;BME280;16320;53.954;9.506;2023-01-29T13:00:25;102018.44;;;3.79;100.00
29315;BME280;16320;53.954;9.506;2023-01-29T13:07:02;102009.78;;;3.79;100.00
29315;BME280;16320;53.954;9.506;2023-01-29T13:10:14;102003.69;;;3.81;100.00
29315;BME280;16320;53.954;9.506;2023-01-29T13:16:45;101989.84;;;3.85;100.00
29315;BME280;16320;53.954;9.506;2023-01-29T13:19:57;101985.50;;;3.81;100.00
29315;BME280;16320;53.954;9.506;2023-01-29T13:23:31;101974.25;;;3.81;100.00
29315;BME280;16320;53.954;9.506;2023-01-29T13:26:40;101983.78;;;3.80;100.00
29315;BME280;16320;53.954;9.506;2023-01-29T13:29:55;101975.09;;;3.84;100.00
29315;BME280;16320;53.954;9.506;2023-01-29T13:33:04;101975.09;;;3.84;100.00
29315;BME280;16320;53.954;9.506;2023-01-29T13:36:16;101976.84;;;3.85;100.00
29315;BME280;16320;53.954;9.506;2023-01-29T13:39:36;101969.88;;;3.88;100.00
29315;BME280;16320;53.954;9.506;2023-01-29T13:42:49;101970.75;;;3.88;100.00
29315;BME280;16320;53.954;9.506;2023-01-29T13:46:14;101967.28;;;3.89;100.00
29315;BME280;16320;53.954;9.506;2023-01-29T13:49:45;101949.09;;;3.88;100.00
29315;BME280;16320;53.954;9.506;2023-01-29T13:53:04;101943.03;;;3.90;100.00
29315;BME280;16320;53.954;9.506;2023-01-29T14:06:42;101919.66;;;3.82;100.00
29315;BME280;16320;53.954;9.506;2023-01-29T14:19:25;101911.00;;;3.83;100.00
29315;BME280;16320;53.954;9.506;2023-01-29T14:22:30;101907.53;;;3.78;100.00
29315;BME280;16320;53.954;9.506;2023-01-29T14:25:39;101912.72;;;3.84;100.00
29315;BME280;16320;53.954;9.506;2023-01-29T14:32:21;101896.28;;;3.81;100.00
29315;BME280;16320;53.954;9.506;2023-01-29T14:35:33;101894.53;;;3.81;100.00
29315;BME280;16320;53.954;9.506;2023-01-29T14:38:39;101888.47;;;3.82;100.00
29315;BME280;16320;53.954;9.506;2023-01-29T14:41:50;101870.31;;;3.76;100.00
29315;BME280;16320;53.954;9.506;2023-01-29T14:45:07;101886.75;;;3.81;100.00
29315;BME280;16320;53.954;9.506;2023-01-29T14:51:49;101875.50;;;3.81;100.00
29315;BME280;16320;53.954;9.506;2023-01-29T14:55:02;101865.94;;;3.81;100.00
29315;BME280;16320;53.954;9.506;2023-01-29T14:59:20;101865.09;;;3.79;100.00
29315;BME280;16320;53.954;9.506;2023-01-29T15:06:49;101850.34;;;3.84;100.00
29315;BME280;16320;53.954;9.506;2023-01-29T15:14:55;101843.47;;;3.77;100.00
29315;BME280;16320;53.954;9.506;2023-01-29T15:18:53;101838.25;;;3.77;100.00
29315;BME280;16320;53.954;9.506;2023-01-29T15:22:42;101827.03;;;3.72;100.00
29315;BME280;16320;53.954;9.506;2023-01-29T15:30:43;101818.34;;;3.72;100.00
29315;BME280;16320;53.954;9.506;2023-01-29T15:34:00;101805.38;;;3.70;100.00
29315;BME280;16320;53.954;9.506;2023-01-29T15:41:21;101793.28;;;3.69;100.00
29315;BME280;16320;53.954;9.506;2023-01-29T15:44:43;101803.66;;;3.72;100.00
29315;BME280;16320;53.954;9.506;2023-01-29T15:47:59;101795.00;;;3.65;100.00
29315;BME280;16320;53.954;9.506;2023-01-29T15:51:07;101791.53;;;3.68;100.00
29315;BME280;16320;53.954;9.506;2023-01-29T15:54:16;101792.38;;;3.67;100.00
29315;BME280;16320;53.954;9.506;2023-01-29T15:57:28;101801.94;;;3.65;100.00
29315;BME280;16320;53.954;9.506;2023-01-29T16:00:33;101807.13;;;3.68;100.00
29315;BME280;16320;53.954;9.506;2023-01-29T16:03:38;101801.06;;;3.71;100.00
29315;BME280;16320;53.954;9.506;2023-01-29T16:06:43;101804.53;;;3.68;100.00
29315;BME280;16320;53.954;9.506;2023-01-29T16:09:49;101790.69;;;3.64;100.00
29315;BME280;16320;53.954;9.506;2023-01-29T16:12:56;101799.31;;;3.68;100.00
29315;BME280;16320;53.954;9.506;2023-01-29T16:16:16;101794.13;;;3.68;100.00
29315;BME280;16320;53.954;9.506;2023-01-29T16:19:25;101781.97;;;3.70;100.00
29315;BME280;16320;53.954;9.506;2023-01-29T16:22:35;101774.25;;;3.62;100.00
29315;BME280;16320;53.954;9.506;2023-01-29T16:25:40;101772.50;;;3.63;100.00
29315;BME280;16320;53.954;9.506;2023-01-29T16:28:45;101776.84;;;3.64;100.00
29315;BME280;16320;53.954;9.506;2023-01-29T16:31:52;101770.75;;;3.68;100.00
29315;BME280;16320;53.954;9.506;2023-01-29T16:35:04;101767.31;;;3.66;100.00
29315;BME280;16320;53.954;9.506;2023-01-29T16:38:29;101753.47;;;3.61;100.00
29315;BME280;16320;53.954;9.506;2023-01-29T16:41:36;101741.38;;;3.57;100.00
29315;BME280;16320;53.954;9.506;2023-01-29T16:48:26;101743.09;;;3.61;100.00
29315;BME280;16320;53.954;9.506;2023-01-29T16:51:38;101740.47;;;3.64;100.00
29315;BME280;16320;53.954;9.506;2023-01-29T16:54:42;101718.81;;;3.59;100.00
29315;BME280;16320;53.954;9.506;2023-01-29T16:57:52;101718.81;;;3.62;100.00
29315;BME280;16320;53.954;9.506;2023-01-29T17:01:09;101701.53;;;3.58;100.00
29315;BME280;16320;53.954;9.506;2023-01-29T17:04:16;101685.97;;;3.55;100.00
29315;BME280;16320;53.954;9.506;2023-01-29T17:07:22;101691.19;;;3.52;100.00
29315;BME280;16320;53.954;9.506;2023-01-29T17:10:28;101692.06;;;3.49;100.00
29315;BME280;16320;53.954;9.506;2023-01-29T17:13:42;101686.03;;;3.42;100.00
29315;BME280;16320;53.954;9.506;2023-01-29T17:17:13;101676.56;;;3.38;100.00
29315;BME280;16320;53.954;9.506;2023-01-29T17:20:18;101686.97;;;3.37;100.00
29315;BME280;16320;53.954;9.506;2023-01-29T17:23:23;101680.03;;;3.33;100.00
29315;BME280;16320;53.954;9.506;2023-01-29T17:26:27;101683.53;;;3.32;100.00
29315;BME280;16320;53.954;9.506;2023-01-29T17:29:36;101675.75;;;3.30;100.00
29315;BME280;16320;53.954;9.506;2023-01-29T17:32:41;101667.97;;;3.28;100.00
29315;BME280;16320;53.954;9.506;2023-01-29T17:35:49;101665.38;;;3.28;100.00
29315;BME280;16320;53.954;9.506;2023-01-29T17:38:54;101661.88;;;3.28;100.00
29315;BME280;16320;53.954;9.506;2023-01-29T17:41:58;101670.56;;;3.27;100.00
29315;BME280;16320;53.954;9.506;2023-01-29T17:45:07;101651.50;;;3.28;100.00
29315;BME280;16320;53.954;9.506;2023-01-29T17:48:25;101644.59;;;3.27;100.00
29315;BME280;16320;53.954;9.506;2023-01-29T17:51:30;101628.19;;;3.23;100.00
29315;BME280;16320;53.954;9.506;2023-01-29T17:54:34;101624.69;;;3.24;100.00
29315;BME280;16320;53.954;9.506;2023-01-29T17:57:39;101611.72;;;3.26;100.00
29315;BME280;16320;53.954;9.506;2023-01-29T18:00:44;101611.72;;;3.23;100.00
29315;BME280;16320;53.954;9.506;2023-01-29T18:03:48;101602.16;;;3.28;100.00
29315;BME280;16320;53.954;9.506;2023-01-29T18:06:58;101592.69;;;3.24;100.00
29315;BME280;16320;53.954;9.506;2023-01-29T18:10:03;101587.50;;;3.25;100.00
29315;BME280;16320;53.954;9.506;2023-01-29T18:13:08;101582.25;;;3.30;100.00
29315;BME280;16320;53.954;9.506;2023-01-29T18:16:12;101583.97;;;3.31;100.00
29315;BME280;16320;53.954;9.506;2023-01-29T18:19:24;101589.16;;;3.31;100.00
29315;BME280;16320;53.954;9.506;2023-01-29T18:22:31;101573.59;;;3.31;100.00
29315;BME280;16320;53.954;9.506;2023-01-29T18:25:35;101569.28;;;3.32;100.00
29315;BME280;16320;53.954;9.506;2023-01-29T18:28:39;101569.31;;;3.25;100.00
29315;BME280;16320;53.954;9.506;2023-01-29T18:31:48;101557.19;;;3.26;100.00
29315;BME280;16320;53.954;9.506;2023-01-29T18:34:52;101560.69;;;3.23;100.00
29315;BME280;16320;53.954;9.506;2023-01-29T18:37:57;101552.94;;;3.19;100.00
29315;BME280;16320;53.954;9.506;2023-01-29T18:41:10;101552.03;;;3.18;100.00
29315;BME280;16320;53.954;9.506;2023-01-29T18:44:15;101554.59;;;3.23;100.00
29315;BME280;16320;53.954;9.506;2023-01-29T18:47:19;101540.78;;;3.21;100.00
29315;BME280;16320;53.954;9.506;2023-01-29T18:50:23;101538.19;;;3.21;100.00
29315;BME280;16320;53.954;9.506;2023-01-29T18:53:29;101533.81;;;3.26;100.00
29315;BME280;16320;53.954;9.506;2023-01-29T18:56:39;101533.81;;;3.26;100.00
29315;BME280;16320;53.954;9.506;2023-01-29T19:00:04;101517.41;;;3.22;100.00
29315;BME280;16320;53.954;9.506;2023-01-29T19:03:12;101507.88;;;3.21;100.00
29315;BME280;16320;53.954;9.506;2023-01-29T19:06:17;101511.31;;;3.25;100.00
29315;BME280;16320;53.954;9.506;2023-01-29T19:09:23;101515.66;;;3.23;100.00
29315;BME280;16320;53.954;9.506;2023-01-29T19:12:31;101495.69;;;3.28;100.00
29315;BME280;16320;53.954;9.506;2023-01-29T19:15:43;101506.09;;;3.26;100.00